createdAt,value
2022-09-28T00:03:08.664Z,986.315
2022-09-28T00:23:07.621Z,986.086
2022-09-28T00:43:07.392Z,985.891
2022-09-28T01:03:08.165Z,985.668
2022-09-28T01:23:08.062Z,985.41
2022-09-28T01:43:07.858Z,985.383
2022-09-28T02:03:08.660Z,985.351
2022-09-28T02:23:07.384Z,985.266
2022-09-28T02:43:07.317Z,985.341
2022-09-28T03:03:08.107Z,985.42
2022-09-28T03:23:26.037Z,985.408
2022-09-28T03:43:07.769Z,985.48
2022-09-28T04:03:08.642Z,985.394
2022-09-28T04:23:07.645Z,985.446
2022-09-28T04:43:07.766Z,985.43
2022-09-28T05:03:08.458Z,985.497
2022-09-28T05:23:07.211Z,985.628
2022-09-28T05:43:08.129Z,985.62
2022-09-28T06:03:10.210Z,985.723
2022-09-28T06:23:08.022Z,985.729
2022-09-28T06:43:07.814Z,985.934
2022-09-28T07:03:08.603Z,986.118
2022-09-28T07:23:20.368Z,986.216
2022-09-28T07:43:07.326Z,986.35
2022-09-28T08:03:08.172Z,986.587
2022-09-28T08:23:07.831Z,986.712
2022-09-28T08:43:07.728Z,986.89
2022-09-28T09:03:08.669Z,987.004
2022-09-28T09:23:07.446Z,987.147
2022-09-28T09:43:07.404Z,987.349
2022-09-28T10:03:08.296Z,987.454
2022-09-28T10:23:07.173Z,987.444
2022-09-28T10:43:08.124Z,987.58
2022-09-28T11:03:08.918Z,987.781
2022-09-28T11:23:13.575Z,987.792
2022-09-28T11:43:08.228Z,987.917
2022-09-28T12:03:09.649Z,988.013
2022-09-28T12:23:07.460Z,987.93
2022-09-28T12:43:07.641Z,987.897
2022-09-28T13:03:08.536Z,987.916
2022-09-28T13:23:07.321Z,988.012
2022-09-28T13:43:07.293Z,987.993
2022-09-28T14:03:08.548Z,988.28
2022-09-28T14:23:07.443Z,988.333
2022-09-28T14:43:07.417Z,988.417
2022-09-28T15:03:12.902Z,988.399
2022-09-28T15:23:07.951Z,988.427
2022-09-28T15:43:07.921Z,988.496
2022-09-28T16:03:09.300Z,988.67
2022-09-28T16:23:07.154Z,988.771
2022-09-28T16:43:07.198Z,988.869
2022-09-28T17:03:09.340Z,989.074
2022-09-28T17:23:07.204Z,989.227
2022-09-28T17:43:07.230Z,989.443
2022-09-28T18:03:09.449Z,989.512
2022-09-28T18:23:07.493Z,989.642
2022-09-28T18:43:07.498Z,989.793
2022-09-28T19:03:08.875Z,989.865
2022-09-28T19:23:07.827Z,989.844
2022-09-28T19:43:07.856Z,989.947
2022-09-28T20:03:08.763Z,990.078
2022-09-28T20:23:07.634Z,990.241
2022-09-28T20:43:07.653Z,990.318
2022-09-28T21:03:14.747Z,990.379
2022-09-28T21:23:08.033Z,990.382
2022-09-28T21:43:08.073Z,990.618
2022-09-28T22:03:08.678Z,990.72
2022-09-28T22:23:07.331Z,990.857
2022-09-28T22:43:08.079Z,990.899
2022-09-28T23:03:09.062Z,991.055
2022-09-28T23:23:07.813Z,991.059
2022-09-28T23:43:07.515Z,991.074
